Time;durP1;ratioP1;P1;durP2;ratioP2;P2;SDS_P1;SDS_P2;PMS_P1;PMS_P2;Temp;Humidity;BMP_temperature;BMP_pressure;BME280_temperature;BME280_humidity;BME280_pressure;Samples;Min_cycle;Max_cycle;Signal;HPM_P1;HPM_P2
2022/06/18 00:01:34;;;;;;;2.97;2.67;;;23.10;51.10;;;;;;5015434;28;20223;-70
2022/06/18 00:04:02;;;;;;;3.08;2.75;;;23.00;50.40;;;;;;5015621;28;20271;-70
2022/06/18 00:06:32;;;;;;;2.60;2.40;;;23.00;50.40;;;;;;5016216;28;20208;-70
2022/06/18 00:09:00;;;;;;;3.90;2.30;;;23.00;50.50;;;;;;5016850;28;20284;-69
2022/06/18 00:14:11;;;;;;;3.28;2.75;;;23.00;50.50;;;;;;5016787;28;20197;-71
2022/06/18 00:16:39;;;;;;;2.70;2.42;;;23.00;50.50;;;;;;5015159;28;20209;-69
2022/06/18 00:19:06;;;;;;;3.05;2.53;;;23.00;50.50;;;;;;5016551;28;20196;-71
2022/06/18 00:21:35;;;;;;;2.60;2.40;;;23.00;50.50;;;;;;5015213;28;20223;-69
2022/06/18 00:24:01;;;;;;;2.67;2.30;;;23.00;50.60;;;;;;5015523;28;20193;-68
2022/06/18 00:26:28;;;;;;;3.58;2.47;;;23.00;50.70;;;;;;5016149;28;20305;-70
2022/06/18 00:28:55;;;;;;;2.38;2.20;;;23.00;50.70;;;;;;5016837;28;20193;-71
2022/06/18 00:31:22;;;;;;;3.15;2.30;;;22.90;50.60;;;;;;5016466;28;20216;-71
2022/06/18 00:33:49;;;;;;;2.58;2.38;;;22.90;50.70;;;;;;5015104;28;20201;-69
2022/06/18 00:36:17;;;;;;;2.47;2.28;;;22.90;50.70;;;;;;5015090;28;20197;-71
2022/06/18 00:38:47;;;;;;;2.40;2.20;;;22.90;50.70;;;;;;5015017;28;20197;-71
2022/06/18 00:41:16;;;;;;;3.03;2.47;;;22.90;50.80;;;;;;5015518;28;20576;-70
2022/06/18 00:43:45;;;;;;;2.50;2.30;;;22.90;50.80;;;;;;5014739;28;20201;-71
2022/06/18 00:46:15;;;;;;;2.83;2.50;;;22.90;50.80;;;;;;5014641;28;20192;-71
2022/06/18 00:48:46;;;;;;;2.50;2.30;;;22.90;50.80;;;;;;5014528;28;20292;-71
2022/06/18 00:51:16;;;;;;;3.17;2.50;;;22.80;50.80;;;;;;5014405;28;20251;-71
2022/06/18 00:53:48;;;;;;;3.38;2.47;;;22.80;50.90;;;;;;5015612;28;20237;-71
2022/06/18 00:56:19;;;;;;;2.70;2.50;;;22.80;50.90;;;;;;5015610;28;20169;-71
2022/06/18 00:58:48;;;;;;;2.47;2.28;;;22.80;50.90;;;;;;5014507;28;20228;-71
2022/06/18 01:01:22;;;;;;;3.03;2.35;;;22.80;50.90;;;;;;5014400;28;20232;-71
2022/06/18 01:03:49;;;;;;;3.30;2.38;;;22.80;51.60;;;;;;5014293;28;20204;-69
2022/06/18 01:06:18;;;;;;;2.40;2.15;;;22.70;50.90;;;;;;5014218;28;20201;-71
2022/06/18 01:08:46;;;;;;;2.70;2.50;;;22.70;50.90;;;;;;5014137;28;20227;-70
2022/06/18 01:11:17;;;;;;;2.47;2.28;;;22.70;50.90;;;;;;5014214;28;20228;-71
2022/06/18 01:13:45;;;;;;;2.65;2.45;;;22.70;51.00;;;;;;5014980;28;20192;-70
2022/06/18 01:16:13;;;;;;;2.65;2.45;;;22.70;51.00;;;;;;5013942;28;20227;-70
2022/06/18 01:18:43;;;;;;;2.38;2.17;;;22.70;51.60;;;;;;5013949;28;20201;-71
2022/06/18 01:21:15;;;;;;;2.45;2.25;;;22.70;51.00;;;;;;5014001;28;20315;-70
2022/06/18 01:23:46;;;;;;;2.58;2.38;;;22.70;51.10;;;;;;5014181;28;20254;-70
2022/06/18 01:26:15;;;;;;;2.33;2.13;;;22.60;51.50;;;;;;5013866;28;20247;-71
2022/06/18 01:28:43;;;;;;;2.60;2.40;;;22.60;50.90;;;;;;5013751;28;20250;-70
2022/06/18 01:31:11;;;;;;;3.22;2.40;;;22.60;50.90;;;;;;5013756;28;20232;-70
2022/06/18 01:33:38;;;;;;;2.50;2.22;;;22.60;51.00;;;;;;5013813;28;20192;-70
2022/06/18 01:36:08;;;;;;;2.60;2.40;;;22.60;51.00;;;;;;5014731;28;20366;-70
2022/06/18 01:38:38;;;;;;;2.53;2.25;;;22.60;51.00;;;;;;5013830;28;20205;-70
2022/06/18 01:43:52;;;;;;;2.60;2.40;;;22.60;51.00;;;;;;5013218;28;20192;-69
2022/06/18 01:46:20;;;;;;;2.33;2.13;;;22.60;51.00;;;;;;5014770;28;20621;-70
2022/06/18 01:48:48;;;;;;;2.42;2.22;;;22.50;50.90;;;;;;5013452;28;20203;-70
2022/06/18 01:51:18;;;;;;;2.60;2.40;;;22.60;51.00;;;;;;5013254;28;20217;-70
2022/06/18 02:00:23;;;;;;;2.60;2.40;;;22.50;50.90;;;;;;4995030;28;20200;-68
2022/06/18 02:02:58;;;;;;;2.72;2.20;;;22.50;51.00;;;;;;4977861;28;20201;-70
2022/06/18 02:05:25;;;;;;;2.47;2.28;;;22.50;51.00;;;;;;4984037;28;20255;-66
2022/06/18 02:07:52;;;;;;;2.20;2.00;;;22.50;51.00;;;;;;4976961;28;20586;-67
2022/06/18 02:10:21;;;;;;;3.28;2.38;;;22.50;50.90;;;;;;4977513;28;20193;-65
2022/06/18 02:12:49;;;;;;;2.78;2.38;;;22.50;51.00;;;;;;4977304;28;20205;-67
2022/06/18 02:15:21;;;;;;;3.13;2.38;;;22.40;50.90;;;;;;4976720;28;20227;-68
2022/06/18 02:17:49;;;;;;;2.97;2.03;;;22.40;50.90;;;;;;4976928;28;20201;-67
2022/06/18 02:20:19;;;;;;;2.72;2.33;;;22.40;50.90;;;;;;4977092;28;20208;-66
2022/06/18 02:22:48;;;;;;;3.22;2.45;;;22.40;50.90;;;;;;4977192;28;20185;-66
2022/06/18 02:25:16;;;;;;;2.38;2.28;;;22.40;50.90;;;;;;4977184;28;20281;-66
2022/06/18 02:27:43;;;;;;;2.40;2.20;;;22.40;50.90;;;;;;4994502;28;20201;-66
2022/06/18 02:30:14;;;;;;;2.40;2.20;;;22.40;51.00;;;;;;4977290;28;20224;-67
2022/06/18 02:32:50;;;;;;;2.38;2.17;;;22.40;50.90;;;;;;4994847;28;20177;-67
2022/06/18 02:35:18;;;;;;;2.20;2.10;;;22.40;51.00;;;;;;4977267;28;20209;-66
2022/06/18 02:37:46;;;;;;;2.60;2.40;;;22.40;51.00;;;;;;4977342;28;20202;-67
2022/06/18 02:40:19;;;;;;;3.25;2.40;;;22.40;50.90;;;;;;4976951;28;20221;-67
2022/06/18 02:42:46;;;;;;;2.70;2.50;;;22.40;51.00;;;;;;4976851;28;20197;-67
2022/06/18 02:45:13;;;;;;;3.90;2.15;;;22.40;51.00;;;;;;4976781;28;20662;-67
2022/06/18 02:47:43;;;;;;;2.30;2.10;;;22.30;50.90;;;;;;4976719;28;20197;-66
2022/06/18 02:50:13;;;;;;;2.70;2.40;;;22.30;50.90;;;;;;4977031;28;20201;-67
2022/06/18 02:52:42;;;;;;;2.60;2.40;;;22.30;51.00;;;;;;4976825;28;20204;-68
2022/06/18 02:55:12;;;;;;;2.50;2.30;;;22.30;51.00;;;;;;4976634;28;20217;-67
2022/06/18 02:57:40;;;;;;;4.60;2.80;;;22.30;51.00;;;;;;4977129;28;20576;-67
2022/06/18 03:00:09;;;;;;;2.95;2.33;;;22.30;51.00;;;;;;4977475;28;20276;-71
2022/06/18 03:02:36;;;;;;;2.78;2.20;;;22.30;51.00;;;;;;4976846;28;20190;-71
2022/06/18 03:05:07;;;;;;;2.75;2.50;;;22.30;51.00;;;;;;4976760;28;20696;-70
2022/06/18 03:07:35;;;;;;;2.47;2.28;;;22.30;51.00;;;;;;4976763;28;20666;-70
2022/06/18 03:12:46;;;;;;;2.47;2.28;;;22.30;51.10;;;;;;4976628;28;20619;-70
2022/06/18 03:15:14;;;;;;;3.63;2.55;;;22.20;51.00;;;;;;4977002;28;20312;-70
2022/06/18 03:17:41;;;;;;;2.42;2.28;;;22.30;51.10;;;;;;4978266;28;20682;-70
2022/06/18 03:20:11;;;;;;;2.50;2.25;;;22.30;51.00;;;;;;4998038;28;20189;-71
2022/06/18 03:22:38;;;;;;;2.50;2.30;;;22.30;51.10;;;;;;4980679;28;20205;-70
2022/06/18 03:25:06;;;;;;;3.20;2.47;;;22.30;51.00;;;;;;4980662;28;20304;-72
2022/06/18 03:27:33;;;;;;;2.72;2.20;;;22.30;51.10;;;;;;4980534;28;20260;-70
2022/06/18 03:30:05;;;;;;;3.70;2.45;;;22.30;51.00;;;;;;4980552;28;20229;-70
2022/06/18 03:32:32;;;;;;;2.47;2.33;;;22.30;51.00;;;;;;4980646;28;20204;-70
2022/06/18 03:34:59;;;;;;;2.47;2.28;;;22.30;50.80;;;;;;4980232;28;20213;-70
2022/06/18 03:37:27;;;;;;;2.45;2.25;;;22.30;50.80;;;;;;4980095;28;20206;-70
2022/06/18 03:39:54;;;;;;;3.08;2.30;;;22.30;50.80;;;;;;4980349;28;20229;-71
2022/06/18 03:42:22;;;;;;;2.47;2.28;;;22.40;50.80;;;;;;4980415;28;20292;-70
2022/06/18 03:44:50;;;;;;;3.60;2.30;;;22.40;50.90;;;;;;4980845;28;20236;-70
2022/06/18 03:47:18;;;;;;;2.42;2.22;;;22.40;50.80;;;;;;4980239;28;20252;-71
2022/06/18 03:49:46;;;;;;;2.67;2.40;;;22.40;50.80;;;;;;4980126;28;20205;-70
2022/06/18 03:52:14;;;;;;;2.70;2.50;;;22.40;50.70;;;;;;4979957;28;20552;-70
2022/06/18 03:54:42;;;;;;;3.20;2.60;;;22.40;50.70;;;;;;4979911;28;20240;-70
2022/06/18 03:57:11;;;;;;;2.58;2.38;;;22.40;50.70;;;;;;4979756;28;20218;-70
2022/06/18 03:59:38;;;;;;;2.65;2.45;;;22.40;50.70;;;;;;4979646;28;20248;-70
2022/06/18 04:02:07;;;;;;;2.70;2.50;;;22.40;50.70;;;;;;4979719;28;20268;-69
2022/06/18 04:04:39;;;;;;;2.72;2.33;;;22.40;50.70;;;;;;4980352;28;20202;-70
2022/06/18 04:07:06;;;;;;;2.55;2.30;;;22.40;50.80;;;;;;4979603;28;20276;-71
2022/06/18 04:09:54;;;;;;;2.40;2.10;;;22.40;50.70;;;;;;4997314;28;20191;-70
2022/06/18 04:12:25;;;;;;;2.80;2.60;;;22.40;50.80;;;;;;4979818;28;20229;-71
2022/06/18 04:15:19;;;;;;;2.83;2.63;;;22.40;50.80;;;;;;4995087;28;20218;-71
2022/06/18 04:17:59;;;;;;;3.45;2.55;;;22.40;50.80;;;;;;4979473;28;20197;-71
2022/06/18 04:20:28;;;;;;;2.50;2.30;;;22.50;50.90;;;;;;4979447;28;20204;-71
2022/06/18 04:22:55;;;;;;;3.25;2.33;;;22.50;50.90;;;;;;4979455;28;20278;-71
2022/06/18 04:25:25;;;;;;;2.75;2.55;;;22.50;51.00;;;;;;4979946;28;20213;-71
2022/06/18 04:27:54;;;;;;;2.90;2.70;;;22.50;50.90;;;;;;4979447;28;20324;-71
2022/06/18 04:30:21;;;;;;;2.72;2.53;;;22.50;51.00;;;;;;4978441;28;20223;-69
2022/06/18 04:32:58;;;;;;;2.60;2.40;;;22.50;51.00;;;;;;4979417;28;20201;-71
2022/06/18 04:35:25;;;;;;;2.80;2.28;;;22.50;51.00;;;;;;4978978;28;20222;-71
2022/06/18 04:37:58;;;;;;;2.90;2.45;;;22.60;51.00;;;;;;4979262;28;20561;-71
2022/06/18 04:40:38;;;;;;;4.05;2.35;;;22.60;51.00;;;;;;4980032;28;20200;-70
2022/06/18 04:43:21;;;;;;;2.83;2.63;;;22.60;51.10;;;;;;4979018;28;20256;-70
2022/06/18 04:45:51;;;;;;;2.90;2.60;;;22.70;51.10;;;;;;4979399;28;20210;-71
2022/06/18 04:48:21;;;;;;;2.53;2.33;;;22.80;50.90;;;;;;4979393;28;20662;-70
2022/06/18 04:50:49;;;;;;;2.60;2.40;;;22.90;50.80;;;;;;4979151;28;20193;-71
2022/06/18 04:53:17;;;;;;;2.83;2.38;;;23.00;50.70;;;;;;4978807;28;20200;-71
2022/06/18 04:55:49;;;;;;;2.70;2.50;;;23.20;50.60;;;;;;4979278;28;20245;-71
2022/06/18 04:58:16;;;;;;;2.50;2.20;;;23.30;50.30;;;;;;4978587;28;20284;-71
2022/06/18 05:00:54;;;;;;;2.78;2.58;;;23.40;50.10;;;;;;4978926;28;20216;-71
2022/06/18 05:03:47;;;;;;;3.35;2.38;;;23.50;49.80;;;;;;4994318;28;20201;-71
2022/06/18 05:06:26;;;;;;;2.50;2.05;;;23.70;49.70;;;;;;4979057;28;20237;-71
2022/06/18 05:09:12;;;;;;;2.10;2.00;;;23.80;49.40;;;;;;4995833;28;20184;-72
2022/06/18 05:11:59;;;;;;;2.70;2.28;;;23.90;49.10;;;;;;4978745;28;20275;-71
2022/06/18 05:14:49;;;;;;;2.95;2.70;;;24.10;49.00;;;;;;4987716;28;20209;-71
2022/06/18 05:17:21;;;;;;;3.53;2.30;;;24.20;48.80;;;;;;4978342;28;20245;-71
2022/06/18 05:19:50;;;;;;;2.45;2.35;;;24.30;48.50;;;;;;4978460;28;20198;-71
2022/06/18 05:22:18;;;;;;;3.28;2.30;;;24.40;48.30;;;;;;4978346;28;20288;-71
2022/06/18 05:24:45;;;;;;;2.88;2.33;;;24.50;48.10;;;;;;4980060;28;20201;-71
2022/06/18 05:27:20;;;;;;;2.42;2.25;;;24.60;47.90;;;;;;4978096;28;20225;-71
2022/06/18 05:29:48;;;;;;;2.85;2.45;;;24.70;47.70;;;;;;4978569;28;20688;-71
2022/06/18 05:32:15;;;;;;;2.53;2.33;;;24.80;47.50;;;;;;4978188;28;20198;-71
2022/06/18 05:34:43;;;;;;;2.72;2.33;;;24.90;48.00;;;;;;4978376;28;20674;-70
2022/06/18 05:37:13;;;;;;;2.50;2.30;;;25.00;47.20;;;;;;4978188;28;20706;-71
2022/06/18 05:39:40;;;;;;;2.50;2.30;;;25.00;47.20;;;;;;4978269;28;20201;-71
2022/06/18 05:42:08;;;;;;;2.83;2.38;;;25.10;46.80;;;;;;4977054;28;20252;-71
2022/06/18 05:44:36;;;;;;;2.45;2.25;;;25.20;46.70;;;;;;4978208;28;20201;-71
2022/06/18 05:47:10;;;;;;;2.60;2.40;;;25.30;46.50;;;;;;4977821;28;20241;-71
2022/06/18 05:49:37;;;;;;;3.10;2.30;;;25.40;46.40;;;;;;4995351;28;20650;-71
2022/06/18 05:52:05;;;;;;;2.60;2.40;;;25.40;46.10;;;;;;4977834;28;20746;-71
2022/06/18 05:54:32;;;;;;;3.08;2.50;;;25.50;45.90;;;;;;4977940;28;20205;-71
2022/06/18 05:57:18;;;;;;;2.67;2.20;;;25.60;45.60;;;;;;4995240;28;20220;-71
2022/06/18 05:59:55;;;;;;;2.63;2.42;;;25.70;45.50;;;;;;4977998;28;20221;-71
2022/06/18 06:02:23;;;;;;;2.50;2.30;;;25.80;45.30;;;;;;4977579;28;20197;-72
2022/06/18 06:04:50;;;;;;;4.28;2.30;;;25.90;45.10;;;;;;4977779;28;20562;-71
2022/06/18 06:07:20;;;;;;;2.42;2.15;;;25.90;45.00;;;;;;4977479;28;20213;-71
2022/06/18 06:12:33;;;;;;;2.15;2.05;;;26.10;44.80;;;;;;4977591;28;20197;-71
2022/06/18 06:15:02;;;;;;;2.50;2.30;;;26.20;44.50;;;;;;4977232;28;20256;-71
2022/06/18 06:17:29;;;;;;;2.25;2.05;;;26.20;44.40;;;;;;4977317;28;20224;-71
2022/06/18 06:20:01;;;;;;;2.67;2.47;;;26.30;44.20;;;;;;4977201;28;20201;-73
2022/06/18 06:22:28;;;;;;;2.58;2.38;;;26.40;44.70;;;;;;4995010;28;20185;-71
2022/06/18 06:24:56;;;;;;;2.63;2.20;;;26.50;43.90;;;;;;4978118;28;20236;-71
2022/06/18 06:27:22;;;;;;;2.38;2.17;;;26.50;43.80;;;;;;4996071;28;20229;-70
2022/06/18 06:29:50;;;;;;;2.78;2.20;;;26.60;43.60;;;;;;4979105;28;20247;-71
2022/06/18 06:32:18;;;;;;;2.30;2.10;;;26.60;43.40;;;;;;4996347;28;20203;-71
2022/06/18 06:34:45;;;;;;;2.08;1.98;;;26.70;43.30;;;;;;4977316;28;20204;-71
2022/06/18 06:37:12;;;;;;;2.40;2.20;;;26.70;43.10;;;;;;4977079;28;20308;-71
2022/06/18 06:39:39;;;;;;;2.20;2.00;;;26.80;43.00;;;;;;4976909;28;20204;-71
2022/06/18 06:42:06;;;;;;;2.05;1.95;;;26.90;42.90;;;;;;4976975;28;20205;-71
2022/06/18 06:44:35;;;;;;;2.67;2.38;;;27.00;42.80;;;;;;4977072;28;20211;-70
2022/06/18 06:47:03;;;;;;;2.40;2.20;;;27.10;42.70;;;;;;4994638;28;20209;-70
2022/06/18 06:49:31;;;;;;;2.45;2.25;;;27.10;42.60;;;;;;4976805;28;20291;-71
2022/06/18 06:51:58;;;;;;;2.63;2.42;;;27.20;42.50;;;;;;4976708;28;20197;-71
2022/06/18 06:54:24;;;;;;;2.38;2.17;;;27.20;42.40;;;;;;4976970;28;20205;-71
2022/06/18 06:59:36;;;;;;;2.58;2.25;;;27.30;42.10;;;;;;4976704;28;20279;-71
2022/06/18 07:02:03;;;;;;;2.58;2.00;;;27.40;42.10;;;;;;4976800;28;20200;-71
2022/06/18 07:04:32;;;;;;;2.00;1.90;;;27.40;42.10;;;;;;4994086;28;20545;-71
2022/06/18 07:06:59;;;;;;;2.40;2.20;;;27.40;42.00;;;;;;4993930;28;20209;-71
2022/06/18 07:09:26;;;;;;;2.25;2.05;;;27.50;41.90;;;;;;4976631;28;20574;-71
2022/06/18 07:11:53;;;;;;;3.20;2.40;;;27.50;41.80;;;;;;4976776;28;20208;-71
2022/06/18 07:14:20;;;;;;;2.33;2.17;;;27.60;41.80;;;;;;4977115;28;20197;-71
2022/06/18 07:16:48;;;;;;;2.40;2.20;;;27.60;41.60;;;;;;4976545;28;20708;-71
2022/06/18 07:19:15;;;;;;;2.50;2.30;;;27.70;41.60;;;;;;4976779;28;20577;-71
2022/06/18 07:21:44;;;;;;;3.15;2.00;;;27.70;42.10;;;;;;4994154;28;20553;-71
2022/06/18 07:24:11;;;;;;;2.33;2.13;;;27.70;41.40;;;;;;4976623;28;20287;-71
2022/06/18 07:26:38;;;;;;;2.60;2.22;;;27.80;41.40;;;;;;4993911;28;20219;-71
2022/06/18 07:29:06;;;;;;;2.50;2.15;;;27.80;41.40;;;;;;4993856;28;20195;-71
2022/06/18 07:31:33;;;;;;;3.05;2.30;;;27.90;41.30;;;;;;4976546;28;20295;-72
2022/06/18 07:34:01;;;;;;;2.22;2.10;;;27.90;41.80;;;;;;4994017;28;20199;-71
2022/06/18 07:36:30;;;;;;;2.50;2.30;;;27.90;41.10;;;;;;4976249;28;20275;-71
2022/06/18 07:38:59;;;;;;;2.38;2.17;;;28.00;41.10;;;;;;4976266;28;20197;-71
2022/06/18 07:41:28;;;;;;;2.03;1.92;;;28.00;41.00;;;;;;4993690;28;20197;-71
2022/06/18 07:43:55;;;;;;;3.17;2.40;;;28.00;40.90;;;;;;4976450;28;20221;-71
2022/06/18 07:46:22;;;;;;;2.30;2.08;;;28.10;40.90;;;;;;4976340;28;20213;-71
2022/06/18 07:48:49;;;;;;;2.50;2.30;;;28.10;40.80;;;;;;4993792;28;20193;-71
2022/06/18 07:51:16;;;;;;;2.30;2.10;;;28.10;40.70;;;;;;4994024;28;20199;-71
2022/06/18 07:53:43;;;;;;;2.10;2.00;;;28.20;40.70;;;;;;4994180;28;20189;-70
2022/06/18 07:56:13;;;;;;;2.28;2.08;;;28.20;40.70;;;;;;4976828;28;20645;-71
2022/06/18 07:58:40;;;;;;;2.53;2.03;;;28.20;40.80;;;;;;4978196;28;20193;-70
2022/06/18 08:01:07;;;;;;;2.85;2.53;;;28.20;40.80;;;;;;4976458;28;20208;-71
2022/06/18 08:03:38;;;;;;;1.88;1.77;;;28.20;40.90;;;;;;4978384;28;20201;-69
2022/06/18 08:06:07;;;;;;;2.28;2.08;;;28.30;40.90;;;;;;4980829;28;20772;-70
2022/06/18 08:08:34;;;;;;;2.33;2.00;;;28.30;40.80;;;;;;4984095;28;20201;-70
2022/06/18 08:11:02;;;;;;;4.43;2.33;;;28.20;40.90;;;;;;4981102;28;20255;-71
2022/06/18 08:13:30;;;;;;;2.80;2.50;;;28.20;41.00;;;;;;4979632;28;20193;-71
2022/06/18 08:15:57;;;;;;;3.58;2.70;;;28.20;41.00;;;;;;4979436;28;20612;-71
2022/06/18 08:18:24;;;;;;;3.60;2.25;;;28.20;41.10;;;;;;4997007;28;20275;-70
2022/06/18 08:20:52;;;;;;;2.47;2.25;;;28.20;41.60;;;;;;4997833;28;20196;-71
2022/06/18 08:23:19;;;;;;;3.05;2.60;;;28.20;41.60;;;;;;4998536;28;20636;-71
2022/06/18 08:25:46;;;;;;;3.05;2.53;;;28.10;41.90;;;;;;4981000;28;20780;-70
2022/06/18 08:28:13;;;;;;;3.80;2.65;;;28.10;42.00;;;;;;4980151;28;20196;-71
2022/06/18 08:30:41;;;;;;;4.05;3.70;;;28.10;42.30;;;;;;4981400;28;20229;-70
2022/06/18 08:33:08;;;;;;;8.65;7.70;;;28.10;42.60;;;;;;4980172;28;20236;-70
2022/06/18 08:35:37;;;;;;;7.10;6.50;;;28.20;42.60;;;;;;4997037;28;20612;-70
2022/06/18 08:38:05;;;;;;;6.32;5.82;;;28.20;42.50;;;;;;4979699;28;20227;-70
2022/06/18 08:40:44;;;;;;;9.23;8.38;;;28.30;42.40;;;;;;4999616;28;20219;-70
2022/06/18 08:43:19;;;;;;;13.65;9.38;;;28.40;42.30;;;;;;4980131;28;20192;-70
2022/06/18 08:45:49;;;;;;;40.63;25.77;;;28.50;42.20;;;;;;4979756;28;20230;-70
2022/06/18 08:48:29;;;;;;;91.15;51.78;;;28.50;42.20;;;;;;4979631;28;20196;-70
2022/06/18 08:51:01;;;;;;;75.15;41.47;;;28.60;42.80;;;;;;4997224;28;20173;-70
2022/06/18 08:53:39;;;;;;;42.80;25.10;;;28.60;42.80;;;;;;4979588;28;20199;-72
2022/06/18 08:56:09;;;;;;;17.05;12.00;;;28.60;42.60;;;;;;4979509;28;20221;-71
2022/06/18 08:58:39;;;;;;;17.73;12.68;;;28.50;42.50;;;;;;4978878;28;20227;-70
2022/06/18 09:01:10;;;;;;;29.25;15.30;;;28.60;42.30;;;;;;4997056;28;20211;-70
2022/06/18 09:03:43;;;;;;;18.88;12.45;;;28.60;42.40;;;;;;4979068;28;20189;-72
2022/06/18 09:06:22;;;;;;;16.35;10.68;;;28.70;42.40;;;;;;4996802;28;20219;-71
2022/06/18 09:08:54;;;;;;;10.23;6.78;;;28.70;42.50;;;;;;4996574;28;20721;-70
2022/06/18 09:11:44;;;;;;;10.25;7.88;;;28.70;42.20;;;;;;4979458;28;20197;-70
2022/06/18 09:14:14;;;;;;;6.43;5.07;;;28.70;42.30;;;;;;4979248;28;20189;-70
2022/06/18 09:16:44;;;;;;;6.63;4.47;;;28.70;42.10;;;;;;4995937;28;20739;-70
2022/06/18 09:19:13;;;;;;;6.10;4.32;;;28.80;42.10;;;;;;4979738;28;20642;-70
2022/06/18 09:21:43;;;;;;;4.47;3.58;;;28.80;42.10;;;;;;4979106;28;20755;-70
2022/06/18 09:24:12;;;;;;;3.58;3.17;;;28.70;42.00;;;;;;4981177;28;20213;-71
2022/06/18 09:26:41;;;;;;;5.28;3.97;;;28.70;41.90;;;;;;4997413;28;20616;-70
2022/06/18 09:29:12;;;;;;;4.03;3.20;;;28.70;42.00;;;;;;4996052;28;20185;-70
2022/06/18 09:31:43;;;;;;;3.20;2.90;;;28.70;41.90;;;;;;4978460;28;20193;-70
2022/06/18 09:34:13;;;;;;;5.07;3.50;;;28.70;42.00;;;;;;4979913;28;20201;-71
2022/06/18 09:36:41;;;;;;;2.95;2.75;;;28.80;42.40;;;;;;4978193;28;20221;-70
2022/06/18 09:39:11;;;;;;;4.95;2.80;;;28.70;41.90;;;;;;4978083;28;20200;-71
2022/06/18 09:41:42;;;;;;;3.25;2.75;;;28.70;42.00;;;;;;4994921;28;20439;-71
2022/06/18 09:44:11;;;;;;;4.65;2.90;;;28.60;42.00;;;;;;4978403;28;20206;-70
2022/06/18 09:46:45;;;;;;;3.72;2.80;;;28.60;42.60;;;;;;4977743;28;20307;-71
2022/06/18 09:49:12;;;;;;;2.70;2.50;;;28.60;42.10;;;;;;4978156;28;20721;-70
2022/06/18 09:51:42;;;;;;;3.75;2.60;;;28.50;41.90;;;;;;4977921;28;20201;-70
2022/06/18 09:54:10;;;;;;;2.92;2.63;;;28.40;41.60;;;;;;4977776;28;20284;-70
2022/06/18 09:56:39;;;;;;;3.22;2.67;;;28.50;42.10;;;;;;4977996;28;20231;-72
2022/06/18 09:59:08;;;;;;;2.60;2.40;;;28.50;42.70;;;;;;4977820;28;20306;-72
2022/06/18 10:01:37;;;;;;;4.13;2.33;;;28.50;42.00;;;;;;4994979;28;20204;-71
2022/06/18 10:06:55;;;;;;;2.47;2.22;;;28.60;41.80;;;;;;4994962;28;20208;-75
2022/06/18 10:09:24;;;;;;;2.40;2.20;;;28.50;41.30;;;;;;4977629;28;20205;-71
2022/06/18 10:11:51;;;;;;;2.47;2.28;;;28.50;41.20;;;;;;4977704;28;20200;-70
2022/06/18 10:14:20;;;;;;;3.78;2.30;;;28.50;41.10;;;;;;4977438;28;20199;-72
2022/06/18 10:16:53;;;;;;;2.55;2.22;;;28.50;41.00;;;;;;4978714;28;20221;-71
2022/06/18 10:19:25;;;;;;;2.50;2.10;;;28.50;41.20;;;;;;4978885;28;20287;-71
2022/06/18 10:21:56;;;;;;;3.00;2.30;;;28.50;41.20;;;;;;4978353;28;20185;-72
2022/06/18 10:24:27;;;;;;;3.15;2.30;;;28.40;40.90;;;;;;4995192;28;20183;-72
2022/06/18 10:26:57;;;;;;;4.07;2.40;;;28.40;41.20;;;;;;4994264;28;20217;-71
2022/06/18 10:29:28;;;;;;;2.42;2.22;;;28.30;41.00;;;;;;4994734;28;20189;-71
2022/06/18 10:32:03;;;;;;;2.80;2.30;;;28.30;41.10;;;;;;4977280;28;20200;-72
2022/06/18 10:34:40;;;;;;;2.22;2.03;;;28.20;41.20;;;;;;4977616;28;20220;-71
2022/06/18 10:37:11;;;;;;;2.10;1.88;;;28.20;41.10;;;;;;4994736;28;20224;-71
2022/06/18 10:39:41;;;;;;;2.83;2.20;;;28.10;40.80;;;;;;4977774;28;20258;-71
2022/06/18 10:42:15;;;;;;;4.22;2.10;;;28.10;40.60;;;;;;4978434;28;20228;-71
2022/06/18 10:45:03;;;;;;;2.25;2.05;;;28.10;40.40;;;;;;4979983;28;20291;-70
2022/06/18 10:47:32;;;;;;;3.15;1.90;;;28.10;39.90;;;;;;4977114;28;20200;-67
2022/06/18 10:50:05;;;;;;;3.58;2.22;;;28.10;39.60;;;;;;4977216;28;20204;-67
2022/06/18 10:52:32;;;;;;;2.38;2.17;;;28.10;39.40;;;;;;4976956;28;20196;-67
2022/06/18 10:55:08;;;;;;;2.03;1.83;;;28.00;39.40;;;;;;4994419;28;20196;-68
2022/06/18 10:57:35;;;;;;;3.47;1.90;;;28.00;39.40;;;;;;4994605;28;20232;-67
2022/06/18 11:00:14;;;;;;;1.88;1.77;;;28.00;38.90;;;;;;4976890;28;20207;-67
2022/06/18 11:02:41;;;;;;;1.92;1.77;;;28.00;38.60;;;;;;4976915;28;20669;-67
2022/06/18 11:05:21;;;;;;;2.28;1.48;;;28.10;38.70;;;;;;4976666;28;20200;-68
2022/06/18 11:07:50;;;;;;;2.30;1.80;;;28.10;38.40;;;;;;4976650;28;20196;-67
2022/06/18 11:10:44;;;;;;;2.28;1.70;;;28.20;38.20;;;;;;4976973;28;20215;-67
2022/06/18 11:13:19;;;;;;;2.28;1.92;;;28.20;37.90;;;;;;4964997;28;20207;-67
2022/06/18 11:15:46;;;;;;;2.25;1.80;;;28.20;37.90;;;;;;4976728;28;20216;-67
2022/06/18 11:18:17;;;;;;;2.38;1.70;;;28.30;38.10;;;;;;4976838;28;20217;-67
2022/06/18 11:20:57;;;;;;;1.95;1.85;;;28.30;38.00;;;;;;4976873;28;20193;-67
2022/06/18 11:23:24;;;;;;;1.83;1.70;;;28.30;38.00;;;;;;4976580;28;20192;-67
2022/06/18 11:25:53;;;;;;;2.38;1.73;;;28.30;37.60;;;;;;4976698;28;20220;-67
2022/06/18 11:28:20;;;;;;;1.65;1.55;;;28.40;37.20;;;;;;4977858;28;20287;-68
2022/06/18 11:30:49;;;;;;;1.60;1.50;;;28.40;37.30;;;;;;4976466;28;20204;-67
2022/06/18 11:33:22;;;;;;;2.05;1.65;;;28.40;37.20;;;;;;4976631;28;20197;-67
2022/06/18 11:35:50;;;;;;;1.63;1.40;;;28.40;37.20;;;;;;4993959;28;20271;-67
2022/06/18 11:38:27;;;;;;;2.28;1.70;;;28.40;37.00;;;;;;4978043;28;20243;-67
2022/06/18 11:40:56;;;;;;;2.10;1.70;;;28.40;36.90;;;;;;4980964;28;20708;-67
2022/06/18 11:43:38;;;;;;;1.98;1.67;;;28.40;36.70;;;;;;4980364;28;20283;-67
2022/06/18 11:46:06;;;;;;;2.10;1.90;;;28.40;37.10;;;;;;4980262;28;20227;-68
2022/06/18 11:48:38;;;;;;;3.38;1.80;;;28.40;37.30;;;;;;4980265;28;20192;-67
2022/06/18 11:51:09;;;;;;;2.33;1.80;;;28.40;37.30;;;;;;4997889;28;20677;-67
2022/06/18 11:53:41;;;;;;;1.90;1.70;;;28.40;37.60;;;;;;4979971;28;20251;-67
2022/06/18 11:56:13;;;;;;;4.15;2.03;;;28.40;37.60;;;;;;4997625;28;20267;-67
2022/06/18 11:58:42;;;;;;;2.55;1.75;;;28.40;37.60;;;;;;4997587;28;20208;-67
2022/06/18 12:01:15;;;;;;;1.88;1.75;;;28.40;37.80;;;;;;5006512;23;20705;-71
2022/06/18 12:03:44;;;;;;;2.45;1.90;;;28.40;38.00;;;;;;4980048;28;20204;-71
2022/06/18 12:06:14;;;;;;;2.53;1.88;;;28.40;38.00;;;;;;4979950;28;20188;-71
2022/06/18 12:08:43;;;;;;;2.67;2.00;;;28.40;38.00;;;;;;4997412;28;20196;-71
2022/06/18 12:11:20;;;;;;;4.57;2.00;;;28.40;38.00;;;;;;4997001;28;20787;-72
2022/06/18 12:13:48;;;;;;;3.85;2.17;;;28.40;38.30;;;;;;4997389;28;20181;-70
2022/06/18 12:16:20;;;;;;;2.80;2.17;;;28.40;38.40;;;;;;4998835;28;20700;-74
2022/06/18 12:18:50;;;;;;;4.03;2.15;;;28.30;38.40;;;;;;4979380;28;20697;-74
2022/06/18 12:21:23;;;;;;;3.58;2.42;;;28.40;38.60;;;;;;4979405;28;20344;-74
2022/06/18 12:23:55;;;;;;;3.17;2.20;;;28.30;38.60;;;;;;4979509;28;20212;-75
2022/06/18 12:26:23;;;;;;;2.25;1.90;;;28.30;38.40;;;;;;4997145;28;20176;-74
2022/06/18 12:29:08;;;;;;;4.45;2.10;;;28.30;38.80;;;;;;4979166;28;20212;-74
2022/06/18 12:31:39;;;;;;;3.00;2.30;;;28.30;39.10;;;;;;4979504;28;20348;-74
2022/06/18 12:34:08;;;;;;;2.67;2.30;;;28.30;39.50;;;;;;4996892;28;20264;-74
2022/06/18 12:36:38;;;;;;;6.28;2.40;;;28.30;39.60;;;;;;4979190;28;20205;-75
2022/06/18 12:39:09;;;;;;;7.88;2.47;;;28.20;39.50;;;;;;4979076;28;20299;-75
2022/06/18 12:41:41;;;;;;;4.28;2.28;;;28.20;39.60;;;;;;4979140;28;20307;-74
2022/06/18 12:46:53;;;;;;;3.83;2.30;;;28.20;40.00;;;;;;4995368;28;20712;-72
2022/06/18 12:49:23;;;;;;;6.88;2.58;;;28.10;40.20;;;;;;4997022;28;20170;-72
2022/06/18 12:51:52;;;;;;;5.97;2.78;;;28.10;40.30;;;;;;4988654;28;20217;-74
2022/06/18 12:54:27;;;;;;;10.10;2.70;;;28.10;40.20;;;;;;4997629;28;20203;-75
2022/06/18 12:56:56;;;;;;;4.05;2.55;;;28.10;40.30;;;;;;4995626;28;20209;-74
2022/06/18 12:59:30;;;;;;;5.05;2.80;;;28.10;40.40;;;;;;4995184;28;20220;-75
2022/06/18 13:02:01;;;;;;;12.00;2.70;;;28.10;40.70;;;;;;4996863;28;20248;-76
2022/06/18 13:04:48;;;;;;;3.35;2.35;;;28.00;41.00;;;;;;4996458;28;20272;-74
2022/06/18 13:07:20;;;;;;;7.00;2.80;;;27.90;41.40;;;;;;4994989;28;20217;-74
2022/06/18 13:12:35;;;;;;;4.03;2.70;;;27.90;42.10;;;;;;5015125;28;20229;-74
2022/06/18 13:15:09;;;;;;;4.65;2.80;;;27.90;42.20;;;;;;5054922;23;20228;-73
2022/06/18 13:20:16;;;;;;;5.20;2.78;;;27.90;42.30;;;;;;5015324;28;20690;-73
2022/06/18 13:22:43;;;;;;;6.88;2.85;;;27.90;42.00;;;;;;5093791;23;20231;-73
2022/06/18 13:28:13;;;;;;;5.78;2.60;;;28.10;41.10;;;;;;5016402;28;20247;-73
2022/06/18 13:30:48;;;;;;;6.35;3.13;;;28.00;41.30;;;;;;5014745;28;20223;-72
2022/06/18 13:33:18;;;;;;;6.38;2.70;;;28.10;41.70;;;;;;5017777;28;20255;-72
2022/06/18 13:35:47;;;;;;;4.00;2.45;;;28.00;42.20;;;;;;5017061;28;20172;-72